sensor_id;sensor_type;location;lat;lon;timestamp;pressure;altitude;pressure_sealevel;temperature;humidity
33153;BME280;19509;43.862;26.176;2023-07-29T00:00:43;100444.25;;;16.37;72.81
33153;BME280;19509;43.862;26.176;2023-07-29T00:03:09;100437.97;;;16.31;72.45
33153;BME280;19509;43.862;26.176;2023-07-29T00:05:36;100447.47;;;16.33;72.58
33153;BME280;19509;43.862;26.176;2023-07-29T00:08:01;100439.91;;;16.36;72.48
33153;BME280;19509;43.862;26.176;2023-07-29T00:10:30;100449.06;;;16.29;72.73
33153;BME280;19509;43.862;26.176;2023-07-29T00:12:56;100444.63;;;16.23;73.30
33153;BME280;19509;43.862;26.176;2023-07-29T00:15:21;100448.28;;;16.12;73.35
33153;BME280;19509;43.862;26.176;2023-07-29T00:17:47;100446.47;;;16.18;73.20
33153;BME280;19509;43.862;26.176;2023-07-29T00:20:12;100447.28;;;16.18;73.19
33153;BME280;19509;43.862;26.176;2023-07-29T00:22:38;100448.38;;;16.17;73.32
33153;BME280;19509;43.862;26.176;2023-07-29T00:25:03;100448.59;;;16.16;73.57
33153;BME280;19509;43.862;26.176;2023-07-29T00:27:29;100448.59;;;16.16;73.65
33153;BME280;19509;43.862;26.176;2023-07-29T00:29:54;100449.59;;;16.09;73.78
33153;BME280;19509;43.862;26.176;2023-07-29T00:32:20;100453.06;;;16.05;74.06
33153;BME280;19509;43.862;26.176;2023-07-29T00:34:45;100442.81;;;15.90;75.10
33153;BME280;19509;43.862;26.176;2023-07-29T00:37:11;100441.16;;;15.89;74.90
33153;BME280;19509;43.862;26.176;2023-07-29T00:39:37;100439.78;;;15.87;75.18
33153;BME280;19509;43.862;26.176;2023-07-29T00:42:03;100436.81;;;15.88;75.22
33153;BME280;19509;43.862;26.176;2023-07-29T00:44:29;100435.59;;;15.79;75.50
33153;BME280;19509;43.862;26.176;2023-07-29T00:46:57;100439.88;;;15.75;75.82
33153;BME280;19509;43.862;26.176;2023-07-29T00:49:23;100435.69;;;15.84;75.79
33153;BME280;19509;43.862;26.176;2023-07-29T00:51:49;100432.31;;;15.77;75.65
33153;BME280;19509;43.862;26.176;2023-07-29T00:54:14;100432.53;;;15.75;75.52
33153;BME280;19509;43.862;26.176;2023-07-29T00:56:40;100437.41;;;15.73;75.74
33153;BME280;19509;43.862;26.176;2023-07-29T00:59:06;100431.66;;;15.70;76.06
33153;BME280;19509;43.862;26.176;2023-07-29T01:01:32;100444.66;;;15.68;75.68
33153;BME280;19509;43.862;26.176;2023-07-29T01:03:58;100442.75;;;15.68;75.70
33153;BME280;19509;43.862;26.176;2023-07-29T01:09:03;100426.72;;;15.67;75.47
33153;BME280;19509;43.862;26.176;2023-07-29T01:11:52;100431.53;;;15.65;75.75
33153;BME280;19509;43.862;26.176;2023-07-29T01:17:00;100431.81;;;15.63;76.00
33153;BME280;19509;43.862;26.176;2023-07-29T01:20:00;100434.75;;;15.61;76.50
33153;BME280;19509;43.862;26.176;2023-07-29T01:22:33;100439.28;;;15.56;76.49
33153;BME280;19509;43.862;26.176;2023-07-29T01:24:59;100444.38;;;15.52;76.72
33153;BME280;19509;43.862;26.176;2023-07-29T01:27:25;100432.94;;;15.50;76.67
33153;BME280;19509;43.862;26.176;2023-07-29T01:29:52;100436.16;;;15.47;76.88
33153;BME280;19509;43.862;26.176;2023-07-29T01:35:15;100428.00;;;15.47;76.32
33153;BME280;19509;43.862;26.176;2023-07-29T01:37:46;100425.97;;;15.37;76.82
33153;BME280;19509;43.862;26.176;2023-07-29T01:40:14;100428.09;;;15.35;77.04
33153;BME280;19509;43.862;26.176;2023-07-29T01:42:40;100430.22;;;15.33;76.96
33153;BME280;19509;43.862;26.176;2023-07-29T01:45:06;100433.19;;;15.32;77.20
33153;BME280;19509;43.862;26.176;2023-07-29T01:47:32;100442.66;;;15.29;77.22
33153;BME280;19509;43.862;26.176;2023-07-29T01:49:57;100438.69;;;15.20;77.53
33153;BME280;19509;43.862;26.176;2023-07-29T01:52:22;100433.25;;;15.20;77.62
33153;BME280;19509;43.862;26.176;2023-07-29T01:54:48;100437.88;;;15.20;77.71
33153;BME280;19509;43.862;26.176;2023-07-29T01:57:13;100447.00;;;15.30;76.98
33153;BME280;19509;43.862;26.176;2023-07-29T01:59:39;100444.06;;;15.32;76.72
33153;BME280;19509;43.862;26.176;2023-07-29T02:02:04;100446.91;;;15.25;76.72
33153;BME280;19509;43.862;26.176;2023-07-29T02:04:30;100430.22;;;15.17;77.05
33153;BME280;19509;43.862;26.176;2023-07-29T02:06:55;100441.97;;;15.22;76.87
33153;BME280;19509;43.862;26.176;2023-07-29T02:09:21;100442.47;;;15.19;77.04
33153;BME280;19509;43.862;26.176;2023-07-29T02:11:46;100437.41;;;15.11;77.59
33153;BME280;19509;43.862;26.176;2023-07-29T02:14:12;100440.88;;;15.06;77.70
33153;BME280;19509;43.862;26.176;2023-07-29T02:16:37;100436.03;;;15.08;77.52
33153;BME280;19509;43.862;26.176;2023-07-29T02:19:04;100441.34;;;15.03;77.75
33153;BME280;19509;43.862;26.176;2023-07-29T02:21:29;100439.25;;;15.05;77.35
33153;BME280;19509;43.862;26.176;2023-07-29T02:23:55;100433.66;;;15.12;77.20
33153;BME280;19509;43.862;26.176;2023-07-29T02:26:22;100439.09;;;15.12;77.33
33153;BME280;19509;43.862;26.176;2023-07-29T02:28:47;100433.00;;;15.05;77.17
33153;BME280;19509;43.862;26.176;2023-07-29T02:31:20;100425.25;;;14.97;77.62
33153;BME280;19509;43.862;26.176;2023-07-29T02:33:46;100439.81;;;15.07;77.32
33153;BME280;19509;43.862;26.176;2023-07-29T02:36:12;100438.31;;;15.00;77.35
33153;BME280;19509;43.862;26.176;2023-07-29T02:38:38;100443.84;;;15.05;77.48
33153;BME280;19509;43.862;26.176;2023-07-29T02:41:04;100442.78;;;15.06;77.93
33153;BME280;19509;43.862;26.176;2023-07-29T02:43:30;100442.00;;;14.94;78.35
33153;BME280;19509;43.862;26.176;2023-07-29T02:45:55;100439.94;;;15.01;77.69
33153;BME280;19509;43.862;26.176;2023-07-29T02:48:21;100457.28;;;15.00;77.63
33153;BME280;19509;43.862;26.176;2023-07-29T02:50:46;100450.38;;;14.92;77.82
33153;BME280;19509;43.862;26.176;2023-07-29T02:53:12;100459.31;;;14.93;78.47
33153;BME280;19509;43.862;26.176;2023-07-29T02:55:40;100468.19;;;14.88;78.15
33153;BME280;19509;43.862;26.176;2023-07-29T02:58:06;100465.69;;;14.86;78.45
33153;BME280;19509;43.862;26.176;2023-07-29T03:00:32;100467.34;;;14.87;77.83
33153;BME280;19509;43.862;26.176;2023-07-29T03:02:58;100475.03;;;14.79;78.56
33153;BME280;19509;43.862;26.176;2023-07-29T03:05:26;100477.28;;;14.82;78.15
33153;BME280;19509;43.862;26.176;2023-07-29T03:07:52;100478.69;;;14.84;78.67
33153;BME280;19509;43.862;26.176;2023-07-29T03:10:17;100487.38;;;14.86;78.40
33153;BME280;19509;43.862;26.176;2023-07-29T03:12:43;100487.97;;;14.88;78.16
33153;BME280;19509;43.862;26.176;2023-07-29T03:15:08;100497.06;;;14.82;78.54
33153;BME280;19509;43.862;26.176;2023-07-29T03:17:34;100495.38;;;14.93;78.26
33153;BME280;19509;43.862;26.176;2023-07-29T03:19:59;100495.91;;;15.07;77.32
33153;BME280;19509;43.862;26.176;2023-07-29T03:22:25;100494.13;;;15.12;77.58
33153;BME280;19509;43.862;26.176;2023-07-29T03:24:50;100495.53;;;15.15;77.66
33153;BME280;19509;43.862;26.176;2023-07-29T03:27:16;100496.72;;;15.07;77.75
33153;BME280;19509;43.862;26.176;2023-07-29T03:29:42;100494.44;;;15.16;77.59
33153;BME280;19509;43.862;26.176;2023-07-29T03:32:07;100496.28;;;15.27;76.81
33153;BME280;19509;43.862;26.176;2023-07-29T03:34:33;100501.66;;;15.39;76.57
33153;BME280;19509;43.862;26.176;2023-07-29T03:37:00;100504.50;;;15.32;76.44
33153;BME280;19509;43.862;26.176;2023-07-29T03:39:26;100496.59;;;15.31;76.52
33153;BME280;19509;43.862;26.176;2023-07-29T03:41:51;100507.06;;;15.39;76.17
33153;BME280;19509;43.862;26.176;2023-07-29T03:44:17;100505.59;;;15.48;75.88
33153;BME280;19509;43.862;26.176;2023-07-29T03:46:44;100504.63;;;15.54;75.89
33153;BME280;19509;43.862;26.176;2023-07-29T03:49:09;100506.34;;;15.60;75.17
33153;BME280;19509;43.862;26.176;2023-07-29T03:51:35;100507.97;;;15.61;75.27
33153;BME280;19509;43.862;26.176;2023-07-29T03:54:00;100508.28;;;15.77;74.73
33153;BME280;19509;43.862;26.176;2023-07-29T03:56:26;100502.44;;;15.85;74.88
33153;BME280;19509;43.862;26.176;2023-07-29T03:58:52;100502.53;;;15.90;74.21
33153;BME280;19509;43.862;26.176;2023-07-29T04:01:18;100512.38;;;15.96;74.14
33153;BME280;19509;43.862;26.176;2023-07-29T04:03:45;100509.41;;;16.15;73.27
33153;BME280;19509;43.862;26.176;2023-07-29T04:06:13;100513.34;;;16.24;73.28
33153;BME280;19509;43.862;26.176;2023-07-29T04:08:39;100511.03;;;16.32;73.01
33153;BME280;19509;43.862;26.176;2023-07-29T04:11:05;100518.03;;;16.50;72.68
33153;BME280;19509;43.862;26.176;2023-07-29T04:13:30;100508.69;;;16.80;71.74
33153;BME280;19509;43.862;26.176;2023-07-29T04:15:56;100507.22;;;16.94;71.14
33153;BME280;19509;43.862;26.176;2023-07-29T04:18:21;100504.38;;;17.06;70.19
33153;BME280;19509;43.862;26.176;2023-07-29T04:20:46;100498.66;;;17.08;70.59
33153;BME280;19509;43.862;26.176;2023-07-29T04:23:12;100501.50;;;17.18;70.26
33153;BME280;19509;43.862;26.176;2023-07-29T04:25:37;100501.03;;;17.26;70.15
33153;BME280;19509;43.862;26.176;2023-07-29T04:28:03;100495.41;;;17.33;69.65
33153;BME280;19509;43.862;26.176;2023-07-29T04:30:30;100497.78;;;17.56;68.70
33153;BME280;19509;43.862;26.176;2023-07-29T04:32:55;100500.06;;;17.69;68.44
33153;BME280;19509;43.862;26.176;2023-07-29T04:35:21;100504.84;;;17.84;68.19
33153;BME280;19509;43.862;26.176;2023-07-29T04:37:46;100496.47;;;17.91;68.51
33153;BME280;19509;43.862;26.176;2023-07-29T04:40:13;100508.53;;;18.05;67.90
33153;BME280;19509;43.862;26.176;2023-07-29T04:42:39;100503.19;;;18.20;67.32
33153;BME280;19509;43.862;26.176;2023-07-29T04:45:04;100513.59;;;18.29;66.84
33153;BME280;19509;43.862;26.176;2023-07-29T04:47:30;100510.13;;;18.38;66.50
33153;BME280;19509;43.862;26.176;2023-07-29T04:49:56;100518.63;;;18.52;66.35
33153;BME280;19509;43.862;26.176;2023-07-29T04:52:21;100520.06;;;18.70;65.67
33153;BME280;19509;43.862;26.176;2023-07-29T04:54:47;100520.19;;;18.85;65.08
33153;BME280;19509;43.862;26.176;2023-07-29T04:57:12;100513.91;;;18.95;64.63
33153;BME280;19509;43.862;26.176;2023-07-29T04:59:38;100509.88;;;19.08;64.51
33153;BME280;19509;43.862;26.176;2023-07-29T05:02:03;100516.19;;;19.24;65.15
33153;BME280;19509;43.862;26.176;2023-07-29T05:04:29;100513.78;;;19.53;63.70
33153;BME280;19509;43.862;26.176;2023-07-29T05:06:54;100505.59;;;19.53;62.45
33153;BME280;19509;43.862;26.176;2023-07-29T05:09:19;100505.94;;;19.67;62.39
33153;BME280;19509;43.862;26.176;2023-07-29T05:11:45;100505.63;;;19.73;62.16
33153;BME280;19509;43.862;26.176;2023-07-29T05:14:13;100506.16;;;19.96;61.62
33153;BME280;19509;43.862;26.176;2023-07-29T05:16:39;100507.78;;;20.07;61.03
33153;BME280;19509;43.862;26.176;2023-07-29T05:19:05;100510.47;;;20.32;60.71
33153;BME280;19509;43.862;26.176;2023-07-29T05:21:30;100519.09;;;20.81;59.61
33153;BME280;19509;43.862;26.176;2023-07-29T05:23:56;100519.06;;;20.91;59.53
33153;BME280;19509;43.862;26.176;2023-07-29T05:26:22;100520.69;;;20.92;59.33
33153;BME280;19509;43.862;26.176;2023-07-29T05:28:47;100516.56;;;20.99;59.07
33153;BME280;19509;43.862;26.176;2023-07-29T05:31:13;100524.72;;;21.10;58.19
33153;BME280;19509;43.862;26.176;2023-07-29T05:33:38;100515.59;;;21.24;57.79
33153;BME280;19509;43.862;26.176;2023-07-29T05:36:04;100534.34;;;21.46;57.40
33153;BME280;19509;43.862;26.176;2023-07-29T05:38:30;100526.81;;;22.31;54.67
33153;BME280;19509;43.862;26.176;2023-07-29T05:40:56;100534.69;;;22.85;52.98
33153;BME280;19509;43.862;26.176;2023-07-29T05:43:21;100523.97;;;24.16;50.09
33153;BME280;19509;43.862;26.176;2023-07-29T05:45:47;100538.44;;;25.91;46.02
33153;BME280;19509;43.862;26.176;2023-07-29T05:48:12;100540.22;;;26.80;43.15
33153;BME280;19509;43.862;26.176;2023-07-29T05:50:37;100547.06;;;26.52;43.27
33153;BME280;19509;43.862;26.176;2023-07-29T05:53:03;100551.41;;;25.32;45.34
33153;BME280;19509;43.862;26.176;2023-07-29T05:55:28;100547.66;;;24.45;47.46
33153;BME280;19509;43.862;26.176;2023-07-29T05:57:54;100542.56;;;23.92;48.53
33153;BME280;19509;43.862;26.176;2023-07-29T06:00:20;100547.91;;;23.64;50.34
33153;BME280;19509;43.862;26.176;2023-07-29T06:02:45;100553.78;;;23.38;50.13
33153;BME280;19509;43.862;26.176;2023-07-29T06:05:11;100548.59;;;23.37;50.44
33153;BME280;19509;43.862;26.176;2023-07-29T06:07:37;100538.34;;;23.43;50.30
33153;BME280;19509;43.862;26.176;2023-07-29T06:10:03;100544.22;;;23.55;50.68
33153;BME280;19509;43.862;26.176;2023-07-29T06:12:28;100528.44;;;23.60;49.39
33153;BME280;19509;43.862;26.176;2023-07-29T06:14:54;100529.50;;;23.65;50.11
33153;BME280;19509;43.862;26.176;2023-07-29T06:17:19;100529.75;;;23.68;50.31
33153;BME280;19509;43.862;26.176;2023-07-29T06:19:45;100531.84;;;23.90;50.08
33153;BME280;19509;43.862;26.176;2023-07-29T06:22:10;100528.13;;;24.00;48.18
33153;BME280;19509;43.862;26.176;2023-07-29T06:24:36;100531.06;;;24.03;49.34
33153;BME280;19509;43.862;26.176;2023-07-29T06:27:01;100528.47;;;24.26;47.92
33153;BME280;19509;43.862;26.176;2023-07-29T06:29:27;100531.53;;;24.38;47.87
33153;BME280;19509;43.862;26.176;2023-07-29T06:31:52;100538.81;;;24.48;47.00
33153;BME280;19509;43.862;26.176;2023-07-29T06:34:18;100546.38;;;24.56;47.01
33153;BME280;19509;43.862;26.176;2023-07-29T06:36:44;100542.88;;;24.78;45.95
33153;BME280;19509;43.862;26.176;2023-07-29T06:39:09;100539.94;;;24.88;44.51
33153;BME280;19509;43.862;26.176;2023-07-29T06:41:35;100540.09;;;25.06;46.62
33153;BME280;19509;43.862;26.176;2023-07-29T06:44:00;100535.94;;;25.08;44.56
33153;BME280;19509;43.862;26.176;2023-07-29T06:46:26;100534.78;;;25.23;42.09
33153;BME280;19509;43.862;26.176;2023-07-29T06:48:51;100535.19;;;25.30;43.80
33153;BME280;19509;43.862;26.176;2023-07-29T06:51:17;100532.44;;;25.30;43.35
33153;BME280;19509;43.862;26.176;2023-07-29T06:53:42;100532.09;;;25.45;42.53
33153;BME280;19509;43.862;26.176;2023-07-29T06:56:08;100541.34;;;25.49;41.69
33153;BME280;19509;43.862;26.176;2023-07-29T06:58:34;100534.97;;;25.63;41.50
33153;BME280;19509;43.862;26.176;2023-07-29T07:01:00;100532.38;;;25.80;40.67
33153;BME280;19509;43.862;26.176;2023-07-29T07:03:25;100527.03;;;25.84;40.71
33153;BME280;19509;43.862;26.176;2023-07-29T07:05:51;100533.47;;;26.02;40.31
33153;BME280;19509;43.862;26.176;2023-07-29T07:08:16;100525.78;;;26.12;38.85
33153;BME280;19509;43.862;26.176;2023-07-29T07:10:41;100522.88;;;26.17;39.93
33153;BME280;19509;43.862;26.176;2023-07-29T07:13:07;100520.19;;;26.35;40.38
33153;BME280;19509;43.862;26.176;2023-07-29T07:15:32;100517.47;;;26.43;38.95
33153;BME280;19509;43.862;26.176;2023-07-29T07:17:58;100516.94;;;26.64;38.41
33153;BME280;19509;43.862;26.176;2023-07-29T07:20:23;100510.13;;;26.70;37.66
33153;BME280;19509;43.862;26.176;2023-07-29T07:22:49;100511.28;;;26.78;38.11
33153;BME280;19509;43.862;26.176;2023-07-29T07:25:14;100511.47;;;26.99;37.83
33153;BME280;19509;43.862;26.176;2023-07-29T07:27:40;100514.44;;;27.11;36.62
33153;BME280;19509;43.862;26.176;2023-07-29T07:30:06;100507.78;;;27.12;36.26
33153;BME280;19509;43.862;26.176;2023-07-29T07:32:31;100513.28;;;27.03;34.55
33153;BME280;19509;43.862;26.176;2023-07-29T07:34:57;100516.06;;;27.12;35.15
33153;BME280;19509;43.862;26.176;2023-07-29T07:37:22;100507.47;;;27.22;35.17
33153;BME280;19509;43.862;26.176;2023-07-29T07:39:48;100504.72;;;27.31;35.27
33153;BME280;19509;43.862;26.176;2023-07-29T07:42:13;100504.06;;;27.43;33.85
33153;BME280;19509;43.862;26.176;2023-07-29T07:44:39;100517.56;;;27.53;34.74
33153;BME280;19509;43.862;26.176;2023-07-29T07:47:04;100512.19;;;27.56;34.64
33153;BME280;19509;43.862;26.176;2023-07-29T07:49:30;100508.28;;;27.66;34.07
33153;BME280;19509;43.862;26.176;2023-07-29T07:51:55;100514.47;;;27.89;33.66
33153;BME280;19509;43.862;26.176;2023-07-29T07:54:20;100514.72;;;28.05;34.40
33153;BME280;19509;43.862;26.176;2023-07-29T07:56:46;100518.19;;;27.93;32.93
33153;BME280;19509;43.862;26.176;2023-07-29T07:59:11;100511.16;;;28.04;32.75
33153;BME280;19509;43.862;26.176;2023-07-29T08:01:38;100511.97;;;28.05;33.65
33153;BME280;19509;43.862;26.176;2023-07-29T08:04:05;100506.13;;;28.06;32.70
33153;BME280;19509;43.862;26.176;2023-07-29T08:06:31;100504.53;;;28.35;33.34
33153;BME280;19509;43.862;26.176;2023-07-29T08:08:57;100502.25;;;28.46;33.36
33153;BME280;19509;43.862;26.176;2023-07-29T08:11:22;100504.34;;;28.49;33.17
33153;BME280;19509;43.862;26.176;2023-07-29T08:13:48;100496.19;;;28.52;32.08
33153;BME280;19509;43.862;26.176;2023-07-29T08:16:13;100496.59;;;28.34;33.44
33153;BME280;19509;43.862;26.176;2023-07-29T08:18:39;100492.03;;;28.29;32.22
33153;BME280;19509;43.862;26.176;2023-07-29T08:21:05;100497.19;;;28.48;32.64
33153;BME280;19509;43.862;26.176;2023-07-29T08:23:32;100489.00;;;28.60;33.51
33153;BME280;19509;43.862;26.176;2023-07-29T08:25:59;100491.41;;;28.62;33.21
33153;BME280;19509;43.862;26.176;2023-07-29T08:28:29;100486.03;;;28.65;31.66
33153;BME280;19509;43.862;26.176;2023-07-29T08:30:55;100486.03;;;28.65;32.66
33153;BME280;19509;43.862;26.176;2023-07-29T08:33:21;100491.31;;;28.49;32.66
33153;BME280;19509;43.862;26.176;2023-07-29T08:35:46;100488.88;;;28.48;31.02
33153;BME280;19509;43.862;26.176;2023-07-29T08:38:12;100485.34;;;28.68;32.50
33153;BME280;19509;43.862;26.176;2023-07-29T08:40:42;100476.44;;;28.84;32.62
33153;BME280;19509;43.862;26.176;2023-07-29T08:43:08;100469.16;;;29.09;32.48
33153;BME280;19509;43.862;26.176;2023-07-29T08:45:35;100473.19;;;29.32;31.66
33153;BME280;19509;43.862;26.176;2023-07-29T08:48:07;100473.22;;;29.44;31.32
33153;BME280;19509;43.862;26.176;2023-07-29T08:50:35;100466.53;;;29.66;31.29
33153;BME280;19509;43.862;26.176;2023-07-29T08:53:03;100468.03;;;29.43;31.29
33153;BME280;19509;43.862;26.176;2023-07-29T08:55:29;100467.16;;;29.30;30.80
33153;BME280;19509;43.862;26.176;2023-07-29T08:57:57;100467.59;;;29.53;31.76
33153;BME280;19509;43.862;26.176;2023-07-29T09:00:23;100470.13;;;29.67;31.43
33153;BME280;19509;43.862;26.176;2023-07-29T09:02:48;100469.69;;;29.77;31.08
33153;BME280;19509;43.862;26.176;2023-07-29T09:05:14;100461.13;;;29.82;30.82
33153;BME280;19509;43.862;26.176;2023-07-29T09:07:40;100455.00;;;29.77;30.20
33153;BME280;19509;43.862;26.176;2023-07-29T09:10:08;100459.81;;;29.67;29.21
33153;BME280;19509;43.862;26.176;2023-07-29T09:12:36;100458.78;;;29.60;29.61
33153;BME280;19509;43.862;26.176;2023-07-29T09:15:01;100458.91;;;29.42;30.48
33153;BME280;19509;43.862;26.176;2023-07-29T09:17:33;100463.63;;;29.63;30.56
33153;BME280;19509;43.862;26.176;2023-07-29T09:19:59;100448.66;;;29.76;30.69
33153;BME280;19509;43.862;26.176;2023-07-29T09:22:26;100447.06;;;30.00;29.77
33153;BME280;19509;43.862;26.176;2023-07-29T09:24:52;100443.34;;;29.83;30.40
33153;BME280;19509;43.862;26.176;2023-07-29T09:27:27;100443.06;;;30.22;30.55
33153;BME280;19509;43.862;26.176;2023-07-29T09:29:54;100444.09;;;30.29;30.49
33153;BME280;19509;43.862;26.176;2023-07-29T09:32:21;100447.69;;;30.42;30.27
33153;BME280;19509;43.862;26.176;2023-07-29T09:34:47;100446.75;;;30.50;29.41
33153;BME280;19509;43.862;26.176;2023-07-29T09:37:23;100443.16;;;30.74;29.80
33153;BME280;19509;43.862;26.176;2023-07-29T09:39:49;100448.09;;;30.93;29.15
33153;BME280;19509;43.862;26.176;2023-07-29T09:42:22;100443.28;;;30.66;29.09
33153;BME280;19509;43.862;26.176;2023-07-29T09:44:50;100431.50;;;30.32;29.53
33153;BME280;19509;43.862;26.176;2023-07-29T09:47:23;100433.69;;;30.51;30.80
33153;BME280;19509;43.862;26.176;2023-07-29T09:49:50;100437.47;;;30.83;29.86
33153;BME280;19509;43.862;26.176;2023-07-29T09:52:20;100432.84;;;30.87;29.42
33153;BME280;19509;43.862;26.176;2023-07-29T09:54:47;100434.13;;;30.53;29.64
33153;BME280;19509;43.862;26.176;2023-07-29T09:57:18;100431.81;;;30.67;29.80
33153;BME280;19509;43.862;26.176;2023-07-29T09:59:54;100429.28;;;30.62;29.35
33153;BME280;19509;43.862;26.176;2023-07-29T10:02:20;100423.25;;;30.60;29.82
33153;BME280;19509;43.862;26.176;2023-07-29T10:04:46;100426.50;;;30.50;29.28
33153;BME280;19509;43.862;26.176;2023-07-29T10:07:12;100424.69;;;30.42;29.88
33153;BME280;19509;43.862;26.176;2023-07-29T10:09:39;100427.78;;;30.40;29.79
33153;BME280;19509;43.862;26.176;2023-07-29T10:12:05;100417.84;;;30.51;29.45
33153;BME280;19509;43.862;26.176;2023-07-29T10:14:31;100423.41;;;30.51;29.39
33153;BME280;19509;43.862;26.176;2023-07-29T10:16:57;100420.47;;;30.84;30.67
33153;BME280;19509;43.862;26.176;2023-07-29T10:19:25;100423.59;;;30.83;28.82
33153;BME280;19509;43.862;26.176;2023-07-29T10:21:51;100420.59;;;30.76;29.28
33153;BME280;19509;43.862;26.176;2023-07-29T10:24:19;100421.91;;;31.06;29.50
33153;BME280;19509;43.862;26.176;2023-07-29T10:26:49;100413.56;;;31.34;28.98
33153;BME280;19509;43.862;26.176;2023-07-29T10:29:19;100406.28;;;31.58;29.06
33153;BME280;19509;43.862;26.176;2023-07-29T10:31:45;100404.19;;;31.55;28.62
33153;BME280;19509;43.862;26.176;2023-07-29T10:34:12;100407.63;;;31.64;28.95
33153;BME280;19509;43.862;26.176;2023-07-29T10:36:39;100404.91;;;31.52;27.43
33153;BME280;19509;43.862;26.176;2023-07-29T10:39:07;100405.81;;;31.40;28.77
33153;BME280;19509;43.862;26.176;2023-07-29T10:41:55;100398.88;;;31.34;28.88
33153;BME280;19509;43.862;26.176;2023-07-29T10:49:48;100392.34;;;31.14;28.49
33153;BME280;19509;43.862;26.176;2023-07-29T10:52:15;100402.31;;;31.43;28.40
33153;BME280;19509;43.862;26.176;2023-07-29T10:54:46;100390.41;;;31.30;27.83
33153;BME280;19509;43.862;26.176;2023-07-29T10:57:13;100389.94;;;31.28;27.40
33153;BME280;19509;43.862;26.176;2023-07-29T10:59:41;100400.94;;;31.37;27.67
33153;BME280;19509;43.862;26.176;2023-07-29T11:02:17;100389.16;;;31.56;27.57
33153;BME280;19509;43.862;26.176;2023-07-29T11:04:50;100384.16;;;31.93;28.34
33153;BME280;19509;43.862;26.176;2023-07-29T11:10:16;100379.84;;;32.12;28.00
33153;BME280;19509;43.862;26.176;2023-07-29T11:12:51;100376.72;;;32.33;26.94
33153;BME280;19509;43.862;26.176;2023-07-29T11:15:24;100375.59;;;32.18;26.76
33153;BME280;19509;43.862;26.176;2023-07-29T11:17:57;100374.44;;;32.03;26.29
33153;BME280;19509;43.862;26.176;2023-07-29T11:20:24;100378.50;;;32.57;27.80
33153;BME280;19509;43.862;26.176;2023-07-29T11:22:52;100367.34;;;32.57;26.00
33153;BME280;19509;43.862;26.176;2023-07-29T11:25:18;100374.41;;;32.70;25.51
33153;BME280;19509;43.862;26.176;2023-07-29T11:27:45;100374.97;;;32.24;25.51
33153;BME280;19509;43.862;26.176;2023-07-29T11:30:12;100371.88;;;32.45;26.55
33153;BME280;19509;43.862;26.176;2023-07-29T11:32:39;100366.88;;;32.90;26.40
33153;BME280;19509;43.862;26.176;2023-07-29T11:35:06;100366.31;;;33.00;26.28
33153;BME280;19509;43.862;26.176;2023-07-29T11:37:33;100366.09;;;33.09;27.57
33153;BME280;19509;43.862;26.176;2023-07-29T11:39:59;100356.09;;;33.08;25.59
33153;BME280;19509;43.862;26.176;2023-07-29T11:42:26;100351.91;;;32.79;26.20
33153;BME280;19509;43.862;26.176;2023-07-29T11:44:51;100359.06;;;32.95;26.97
33153;BME280;19509;43.862;26.176;2023-07-29T11:47:17;100351.13;;;32.97;26.93
33153;BME280;19509;43.862;26.176;2023-07-29T11:49:42;100350.84;;;33.03;26.03
33153;BME280;19509;43.862;26.176;2023-07-29T11:52:09;100341.03;;;32.73;26.45
33153;BME280;19509;43.862;26.176;2023-07-29T11:54:36;100340.63;;;32.71;24.87
33153;BME280;19509;43.862;26.176;2023-07-29T11:57:11;100340.44;;;32.45;26.98
33153;BME280;19509;43.862;26.176;2023-07-29T11:59:37;100341.28;;;32.65;25.85
33153;BME280;19509;43.862;26.176;2023-07-29T12:02:17;100329.13;;;32.38;25.59
33153;BME280;19509;43.862;26.176;2023-07-29T12:04:46;100329.47;;;32.17;26.34
33153;BME280;19509;43.862;26.176;2023-07-29T12:07:13;100325.72;;;32.44;25.84
33153;BME280;19509;43.862;26.176;2023-07-29T12:09:39;100327.31;;;32.45;26.68
33153;BME280;19509;43.862;26.176;2023-07-29T12:12:05;100327.34;;;32.65;24.80
33153;BME280;19509;43.862;26.176;2023-07-29T12:14:32;100329.88;;;32.54;26.45
33153;BME280;19509;43.862;26.176;2023-07-29T12:17:03;100324.63;;;32.68;25.50
33153;BME280;19509;43.862;26.176;2023-07-29T12:19:33;100322.28;;;32.90;25.63
33153;BME280;19509;43.862;26.176;2023-07-29T12:22:01;100320.44;;;32.97;27.25
33153;BME280;19509;43.862;26.176;2023-07-29T12:24:27;100321.78;;;33.04;25.69
33153;BME280;19509;43.862;26.176;2023-07-29T12:26:52;100311.44;;;33.27;25.36
33153;BME280;19509;43.862;26.176;2023-07-29T12:29:19;100320.84;;;33.61;25.05
33153;BME280;19509;43.862;26.176;2023-07-29T12:31:45;100322.09;;;33.64;24.00
33153;BME280;19509;43.862;26.176;2023-07-29T12:34:18;100321.47;;;33.09;23.99
33153;BME280;19509;43.862;26.176;2023-07-29T12:36:49;100318.69;;;33.09;24.58
33153;BME280;19509;43.862;26.176;2023-07-29T12:41:43;100321.78;;;33.04;26.43
33153;BME280;19509;43.862;26.176;2023-07-29T12:44:08;100319.19;;;33.14;25.30
33153;BME280;19509;43.862;26.176;2023-07-29T12:46:34;100322.34;;;33.13;25.88
33153;BME280;19509;43.862;26.176;2023-07-29T12:48:59;100324.50;;;33.65;25.71
33153;BME280;19509;43.862;26.176;2023-07-29T12:51:25;100319.88;;;33.50;25.71
33153;BME280;19509;43.862;26.176;2023-07-29T12:53:50;100309.84;;;33.72;23.91
33153;BME280;19509;43.862;26.176;2023-07-29T12:56:16;100321.88;;;33.30;23.41